Terminal Aerodrome Forecast
Issued by NWS

Home | Current Version | Previous Version | Text Only | Print | Product List | Glossary On
Versions: 1 2 3 4 5 6 7 8 9 10 11 12 13 14 15 16 17 18 19 20 21 22 23 24 25 26 27 28
000
FTUS45 KABQ 272300 RRA
TAFLVS
TAF
KLVS 272343Z 2800/2824 18015G22KT 3SM -SN BR SCT008 OVC015
      TEMPO 2800/2804 3/4SM -SN BR OVC006
     FM280400 18013KT 5SM -SN BR BKN008 OVC015
      TEMPO 2804/2808 1SM -SN BR
     FM281200 20013KT 1SM BR VCSH OVC007
     FM281700 20015G22KT P6SM VCSH SCT015 BKN035=

USA.gov is the U.S. government's official web portal to all federal, state and local government web resources and services.